PWSweather.com
Personal Weather Stations
Station Observations
KMIEASTT1
Tawas Bay, East Tawas, MI 48730

Tawas BayEast Tawas, MI 48730

Lat: 44.28, Lon: -83.48

Elevation: 600

Station Type: Davis VantagePro

http://www.tawasbayweather.com

High Low Average
Temperature 34.4°F1.3°C 17.5°F-8.1°C 27.0°F-2.8°C
Dew Point 28.2°F-2.1°C 14.6°F-9.7°C 21.9°F-5.6°C
Winds 18.0 mph 29.0 kmh Calm Calm 4.0 mph WSW6.4 kmh WSW
Wind Gusts 22.0 mph35.4 kmh -- 6.0 mph9.7 kmh
Humidity 89% 71% 81%
Pressure 30.32 in1026.8 mb 30.23 in1023.7 mb -
Precipitation 0.00 in0.0 mm - -
Hour Temp Dew Point Humidity Winds Wind Gusts Pressure Precip Precip Rate Daily Precip Total
12:00 AM 23.8°F-4.6°C 16.4°F-8.7°C 73% Calm Calm -- 30.32 in1026.8 mb 0.00 in0.0 mm 0.00 in0.0 mm 0.00 in0.0 mm
12:15 AM 23.6°F-4.7°C 16.5°F-8.6°C 74% Calm Calm 1.0 mph1.6 kmh 30.32 in1026.8 mb 0.00 in0.0 mm 0.00 in0.0 mm 0.00 in0.0 mm
12:30 AM 23.3°F-4.8°C 16.9°F-8.4°C 76% 1.0 mph WSW1.6 kmh WSW 3.0 mph4.8 kmh 30.32 in1026.8 mb 0.00 in0.0 mm 0.00 in0.0 mm 0.00 in0.0 mm
12:45 AM 23.1°F-4.9°C 16.7°F-8.5°C 76% Calm Calm 3.0 mph4.8 kmh 30.32 in1026.8 mb 0.00 in0.0 mm 0.00 in0.0 mm 0.00 in0.0 mm
01:00 AM 23.0°F-5.0°C 16.9°F-8.4°C 77% 1.0 mph W1.6 kmh W 4.0 mph6.4 kmh 30.32 in1026.8 mb 0.00 in0.0 mm 0.00 in0.0 mm 0.00 in0.0 mm
01:15 AM 22.8°F-5.1°C 16.7°F-8.5°C 77% Calm Calm 3.0 mph4.8 kmh 30.32 in1026.8 mb 0.00 in0.0 mm 0.00 in0.0 mm 0.00 in0.0 mm
01:30 AM 22.6°F-5.2°C 16.5°F-8.6°C 77% Calm Calm -- 30.32 in1026.8 mb 0.00 in0.0 mm 0.00 in0.0 mm 0.00 in0.0 mm
01:45 AM 22.5°F-5.3°C 16.7°F-8.5°C 78% Calm Calm 1.0 mph1.6 kmh 30.32 in1026.8 mb 0.00 in0.0 mm 0.00 in0.0 mm 0.00 in0.0 mm
02:00 AM 22.4°F-5.3°C 16.3°F-8.7°C 77% Calm Calm 1.0 mph1.6 kmh 30.32 in1026.8 mb 0.00 in0.0 mm 0.00 in0.0 mm 0.00 in0.0 mm
02:15 AM 22.2°F-5.4°C 16.4°F-8.7°C 78% Calm Calm -- 30.32 in1026.8 mb 0.00 in0.0 mm 0.00 in0.0 mm 0.00 in0.0 mm
02:30 AM 22.0°F-5.6°C 16.2°F-8.8°C 78% Calm Calm -- 30.32 in1026.8 mb 0.00 in0.0 mm 0.00 in0.0 mm 0.00 in0.0 mm
02:45 AM 21.9°F-5.6°C 16.4°F-8.7°C 79% Calm Calm -- 30.32 in1026.8 mb 0.00 in0.0 mm 0.00 in0.0 mm 0.00 in0.0 mm
03:00 AM 21.6°F-5.8°C 16.1°F-8.8°C 79% Calm Calm -- 30.32 in1026.8 mb 0.00 in0.0 mm 0.00 in0.0 mm 0.00 in0.0 mm
03:15 AM 21.5°F-5.8°C 16.3°F-8.7°C 80% Calm Calm -- 30.32 in1026.8 mb 0.00 in0.0 mm 0.00 in0.0 mm 0.00 in0.0 mm
03:30 AM 21.2°F-6.0°C 16.3°F-8.7°C 81% Calm Calm -- 30.32 in1026.8 mb 0.00 in0.0 mm 0.00 in0.0 mm 0.00 in0.0 mm
03:45 AM 20.9°F-6.2°C 16.0°F-8.9°C 81% Calm Calm -- 30.32 in1026.8 mb 0.00 in0.0 mm 0.00 in0.0 mm 0.00 in0.0 mm
04:00 AM 20.9°F-6.2°C 16.0°F-8.9°C 81% Calm Calm -- 30.32 in1026.8 mb 0.00 in0.0 mm 0.00 in0.0 mm 0.00 in0.0 mm
04:15 AM 20.7°F-6.3°C 15.8°F-9.0°C 81% Calm Calm -- 30.31 in1026.4 mb 0.00 in0.0 mm 0.00 in0.0 mm 0.00 in0.0 mm
04:30 AM 20.7°F-6.3°C 15.8°F-9.0°C 81% Calm Calm -- 30.31 in1026.4 mb 0.00 in0.0 mm 0.00 in0.0 mm 0.00 in0.0 mm
04:45 AM 20.3°F-6.5°C 16.0°F-8.9°C 83% Calm Calm -- 30.31 in1026.4 mb 0.00 in0.0 mm 0.00 in0.0 mm 0.00 in0.0 mm
05:00 AM 19.6°F-6.9°C 15.6°F-9.1°C 84% Calm Calm -- 30.31 in1026.4 mb 0.00 in0.0 mm 0.00 in0.0 mm 0.00 in0.0 mm
05:15 AM 19.2°F-7.1°C 15.7°F-9.1°C 86% Calm Calm -- 30.31 in1026.4 mb 0.00 in0.0 mm 0.00 in0.0 mm 0.00 in0.0 mm
05:30 AM 19.3°F-7.1°C 16.1°F-8.8°C 87% Calm Calm -- 30.32 in1026.8 mb 0.00 in0.0 mm 0.00 in0.0 mm 0.00 in0.0 mm
05:45 AM 18.9°F-7.3°C 15.4°F-9.2°C 86% Calm Calm -- 30.31 in1026.4 mb 0.00 in0.0 mm 0.00 in0.0 mm 0.00 in0.0 mm
06:00 AM 18.2°F-7.7°C 15.0°F-9.4°C 87% Calm Calm -- 30.31 in1026.4 mb 0.00 in0.0 mm 0.00 in0.0 mm 0.00 in0.0 mm
06:15 AM 17.9°F-7.8°C 14.7°F-9.6°C 87% Calm Calm -- 30.31 in1026.4 mb 0.00 in0.0 mm 0.00 in0.0 mm 0.00 in0.0 mm
06:30 AM 17.5°F-8.1°C 14.6°F-9.7°C 88% Calm Calm -- 30.30 in1026.1 mb 0.00 in0.0 mm 0.00 in0.0 mm 0.00 in0.0 mm
06:45 AM 17.5°F-8.1°C 14.6°F-9.7°C 88% Calm Calm -- 30.29 in1025.7 mb 0.00 in0.0 mm 0.00 in0.0 mm 0.00 in0.0 mm
07:00 AM 18.0°F-7.8°C 15.3°F-9.3°C 89% Calm Calm -- 30.29 in1025.7 mb 0.00 in0.0 mm 0.00 in0.0 mm 0.00 in0.0 mm
07:15 AM 17.7°F-7.9°C 15.0°F-9.4°C 89% Calm Calm -- 30.29 in1025.7 mb 0.00 in0.0 mm 0.00 in0.0 mm 0.00 in0.0 mm
07:30 AM 17.6°F-8.0°C 14.9°F-9.5°C 89% Calm Calm -- 30.29 in1025.7 mb 0.00 in0.0 mm 0.00 in0.0 mm 0.00 in0.0 mm
07:45 AM 18.1°F-7.7°C 15.2°F-9.3°C 88% Calm Calm -- 30.29 in1025.7 mb 0.00 in0.0 mm 0.00 in0.0 mm 0.00 in0.0 mm
08:00 AM 17.9°F-7.8°C 15.2°F-9.3°C 89% Calm Calm 1.0 mph1.6 kmh 30.29 in1025.7 mb 0.00 in0.0 mm 0.00 in0.0 mm 0.00 in0.0 mm
08:15 AM 19.0°F-7.2°C 16.3°F-8.7°C 89% Calm Calm -- 30.30 in1026.1 mb 0.00 in0.0 mm 0.00 in0.0 mm 0.00 in0.0 mm
08:30 AM 19.8°F-6.8°C 17.1°F-8.3°C 89% Calm Calm -- 30.30 in1026.1 mb 0.00 in0.0 mm 0.00 in0.0 mm 0.00 in0.0 mm
08:45 AM 19.8°F-6.8°C 16.8°F-8.4°C 88% Calm Calm -- 30.30 in1026.1 mb 0.00 in0.0 mm 0.00 in0.0 mm 0.00 in0.0 mm
09:00 AM 20.3°F-6.5°C 17.6°F-8.0°C 89% Calm Calm -- 30.30 in1026.1 mb 0.00 in0.0 mm 0.00 in0.0 mm 0.00 in0.0 mm
09:15 AM 21.2°F-6.0°C 18.2°F-7.7°C 88% Calm Calm -- 30.30 in1026.1 mb 0.00 in0.0 mm 0.00 in0.0 mm 0.00 in0.0 mm
09:30 AM 21.7°F-5.7°C 18.7°F-7.4°C 88% Calm Calm 1.0 mph1.6 kmh 30.31 in1026.4 mb 0.00 in0.0 mm 0.00 in0.0 mm 0.00 in0.0 mm
09:45 AM 22.1°F-5.5°C 18.8°F-7.3°C 87% 1.0 mph WSW1.6 kmh WSW 2.0 mph3.2 kmh 30.31 in1026.4 mb 0.00 in0.0 mm 0.00 in0.0 mm 0.00 in0.0 mm
10:00 AM 23.0°F-5.0°C 20.0°F-6.7°C 88% 5.0 mph SW8.0 kmh SW 7.0 mph11.3 kmh 30.32 in1026.8 mb 0.00 in0.0 mm 0.00 in0.0 mm 0.00 in0.0 mm
10:15 AM 23.7°F-4.6°C 20.4°F-6.4°C 87% 1.0 mph WSW1.6 kmh WSW 4.0 mph6.4 kmh 30.32 in1026.8 mb 0.00 in0.0 mm 0.00 in0.0 mm 0.00 in0.0 mm
10:30 AM 24.1°F-4.4°C 20.3°F-6.5°C 85% Calm Calm 3.0 mph4.8 kmh 30.32 in1026.8 mb 0.00 in0.0 mm 0.00 in0.0 mm 0.00 in0.0 mm
10:45 AM 24.5°F-4.2°C 20.7°F-6.3°C 85% 1.0 mph SW1.6 kmh SW 3.0 mph4.8 kmh 30.31 in1026.4 mb 0.00 in0.0 mm 0.00 in0.0 mm 0.00 in0.0 mm
11:00 AM 25.4°F-3.7°C 21.3°F-5.9°C 84% 3.0 mph WSW4.8 kmh WSW 6.0 mph9.7 kmh 30.31 in1026.4 mb 0.00 in0.0 mm 0.00 in0.0 mm 0.00 in0.0 mm
11:15 AM 26.6°F-3.0°C 21.6°F-5.8°C 81% 9.0 mph WSW14.5 kmh WSW 11.0 mph17.7 kmh 30.31 in1026.4 mb 0.00 in0.0 mm 0.00 in0.0 mm 0.00 in0.0 mm
11:30 AM 27.3°F-2.6°C 21.7°F-5.7°C 79% 6.0 mph WSW9.7 kmh WSW 10.0 mph16.1 kmh 30.31 in1026.4 mb 0.00 in0.0 mm 0.00 in0.0 mm 0.00 in0.0 mm
11:45 AM 28.1°F-2.2°C 22.4°F-5.3°C 79% 5.0 mph WSW8.0 kmh WSW 7.0 mph11.3 kmh 30.31 in1026.4 mb 0.00 in0.0 mm 0.00 in0.0 mm 0.00 in0.0 mm
12:00 PM 29.4°F-1.4°C 23.1°F-4.9°C 77% 5.0 mph WSW8.0 kmh WSW 10.0 mph16.1 kmh 30.30 in1026.1 mb 0.00 in0.0 mm 0.00 in0.0 mm 0.00 in0.0 mm
12:15 PM 30.4°F-0.9°C 25.0°F-3.9°C 80% 3.0 mph SE4.8 kmh SE 5.0 mph8.0 kmh 30.30 in1026.1 mb 0.00 in0.0 mm 0.00 in0.0 mm 0.00 in0.0 mm
12:30 PM 30.4°F-0.9°C 24.7°F-4.1°C 79% 4.0 mph ESE6.4 kmh ESE 5.0 mph8.0 kmh 30.30 in1026.1 mb 0.00 in0.0 mm 0.00 in0.0 mm 0.00 in0.0 mm
12:45 PM 30.4°F-0.9°C 24.7°F-4.1°C 79% 1.0 mph E1.6 kmh E 6.0 mph9.7 kmh 30.29 in1025.7 mb 0.00 in0.0 mm 0.00 in0.0 mm 0.00 in0.0 mm
01:00 PM 31.5°F-0.3°C 25.8°F-3.4°C 79% 1.0 mph SSE1.6 kmh SSE 5.0 mph8.0 kmh 30.29 in1025.7 mb 0.00 in0.0 mm 0.00 in0.0 mm 0.00 in0.0 mm
01:15 PM 31.1°F-0.5°C 26.3°F-3.2°C 82% 10.0 mph SSE16.1 kmh SSE 13.0 mph20.9 kmh 30.29 in1025.7 mb 0.00 in0.0 mm 0.00 in0.0 mm 0.00 in0.0 mm
01:30 PM 30.4°F-0.9°C 26.4°F-3.1°C 85% 10.0 mph S16.1 kmh S 16.0 mph25.7 kmh 30.29 in1025.7 mb 0.00 in0.0 mm 0.00 in0.0 mm 0.00 in0.0 mm
01:45 PM 30.7°F-0.7°C 26.7°F-2.9°C 85% 15.0 mph S24.1 kmh S 18.0 mph29.0 kmh 30.28 in1025.4 mb 0.00 in0.0 mm 0.00 in0.0 mm 0.00 in0.0 mm
02:00 PM 30.8°F-0.7°C 26.8°F-2.9°C 85% 18.0 mph S29.0 kmh S 19.0 mph30.6 kmh 30.27 in1025.1 mb 0.00 in0.0 mm 0.00 in0.0 mm 0.00 in0.0 mm
02:15 PM 31.0°F-0.6°C 26.7°F-2.9°C 84% 18.0 mph S29.0 kmh S 21.0 mph33.8 kmh 30.27 in1025.1 mb 0.00 in0.0 mm 0.00 in0.0 mm 0.00 in0.0 mm
02:30 PM 31.0°F-0.6°C 27.0°F-2.8°C 85% 14.0 mph S22.5 kmh S 22.0 mph35.4 kmh 30.26 in1024.7 mb 0.00 in0.0 mm 0.00 in0.0 mm 0.00 in0.0 mm
02:45 PM 31.2°F-0.4°C 27.2°F-2.7°C 85% 18.0 mph S29.0 kmh S 22.0 mph35.4 kmh 30.26 in1024.7 mb 0.00 in0.0 mm 0.00 in0.0 mm 0.00 in0.0 mm
03:00 PM 31.5°F-0.3°C 27.5°F-2.5°C 85% 15.0 mph S24.1 kmh S 19.0 mph30.6 kmh 30.25 in1024.4 mb 0.00 in0.0 mm 0.00 in0.0 mm 0.00 in0.0 mm
03:15 PM 31.8°F-0.1°C 27.5°F-2.5°C 84% 16.0 mph S25.7 kmh S 21.0 mph33.8 kmh 30.25 in1024.4 mb 0.00 in0.0 mm 0.00 in0.0 mm 0.00 in0.0 mm
03:30 PM 31.7°F-0.2°C 27.4°F-2.6°C 84% 16.0 mph S25.7 kmh S 21.0 mph33.8 kmh 30.25 in1024.4 mb 0.00 in0.0 mm 0.00 in0.0 mm 0.00 in0.0 mm
03:45 PM 32.0°F0.0°C 27.7°F-2.4°C 84% 15.0 mph S24.1 kmh S 21.0 mph33.8 kmh 30.25 in1024.4 mb 0.00 in0.0 mm 0.00 in0.0 mm 0.00 in0.0 mm
04:00 PM 32.1°F0.1°C 27.8°F-2.3°C 84% 14.0 mph S22.5 kmh S 18.0 mph29.0 kmh 30.25 in1024.4 mb 0.00 in0.0 mm 0.00 in0.0 mm 0.00 in0.0 mm
04:15 PM 32.5°F0.3°C 27.6°F-2.4°C 82% 13.0 mph S20.9 kmh S 19.0 mph30.6 kmh 30.25 in1024.4 mb 0.00 in0.0 mm 0.00 in0.0 mm 0.00 in0.0 mm
04:30 PM 32.3°F0.2°C 27.4°F-2.6°C 82% 12.0 mph S19.3 kmh S 18.0 mph29.0 kmh 30.24 in1024.0 mb 0.00 in0.0 mm 0.00 in0.0 mm 0.00 in0.0 mm
04:45 PM 32.4°F0.2°C 27.5°F-2.5°C 82% 15.0 mph S24.1 kmh S 17.0 mph27.4 kmh 30.24 in1024.0 mb 0.00 in0.0 mm 0.00 in0.0 mm 0.00 in0.0 mm
05:00 PM 32.5°F0.3°C 27.3°F-2.6°C 81% 15.0 mph S24.1 kmh S 15.0 mph24.1 kmh 30.24 in1024.0 mb 0.00 in0.0 mm 0.00 in0.0 mm 0.00 in0.0 mm
05:15 PM 32.5°F0.3°C 27.3°F-2.6°C 81% 12.0 mph S19.3 kmh S 16.0 mph25.7 kmh 30.23 in1023.7 mb 0.00 in0.0 mm 0.00 in0.0 mm 0.00 in0.0 mm
05:30 PM 32.6°F0.3°C 27.4°F-2.6°C 81% 13.0 mph S20.9 kmh S 15.0 mph24.1 kmh 30.23 in1023.7 mb 0.00 in0.0 mm 0.00 in0.0 mm 0.00 in0.0 mm
05:45 PM 32.7°F0.4°C 27.8°F-2.3°C 82% 13.0 mph S20.9 kmh S 15.0 mph24.1 kmh 30.23 in1023.7 mb 0.00 in0.0 mm 0.00 in0.0 mm 0.00 in0.0 mm
06:00 PM 32.6°F0.3°C 27.7°F-2.4°C 82% 13.0 mph S20.9 kmh S 16.0 mph25.7 kmh 30.23 in1023.7 mb 0.00 in0.0 mm 0.00 in0.0 mm 0.00 in0.0 mm
06:15 PM 32.8°F0.4°C 28.2°F-2.1°C 83% 12.0 mph S19.3 kmh S 14.0 mph22.5 kmh 30.23 in1023.7 mb 0.00 in0.0 mm 0.00 in0.0 mm 0.00 in0.0 mm
06:30 PM 33.0°F0.6°C 28.1°F-2.2°C 82% 6.0 mph SSW9.7 kmh SSW 8.0 mph12.9 kmh 30.24 in1024.0 mb 0.00 in0.0 mm 0.00 in0.0 mm 0.00 in0.0 mm
06:45 PM 34.3°F1.3°C 26.2°F-3.2°C 72% 2.0 mph SW3.2 kmh SW 7.0 mph11.3 kmh 30.24 in1024.0 mb 0.00 in0.0 mm 0.00 in0.0 mm 0.00 in0.0 mm
07:00 PM 34.1°F1.2°C 26.7°F-2.9°C 74% 3.0 mph SW4.8 kmh SW 6.0 mph9.7 kmh 30.24 in1024.0 mb 0.00 in0.0 mm 0.00 in0.0 mm 0.00 in0.0 mm
07:15 PM 34.4°F1.3°C 26.0°F-3.3°C 71% 5.0 mph W8.0 kmh W 11.0 mph17.7 kmh 30.24 in1024.0 mb 0.00 in0.0 mm 0.00 in0.0 mm 0.00 in0.0 mm
07:30 PM 34.3°F1.3°C 25.9°F-3.4°C 71% 2.0 mph W3.2 kmh W 3.0 mph4.8 kmh 30.25 in1024.4 mb 0.00 in0.0 mm 0.00 in0.0 mm 0.00 in0.0 mm
07:45 PM 34.1°F1.2°C 25.7°F-3.5°C 71% 9.0 mph WSW14.5 kmh WSW 11.0 mph17.7 kmh 30.25 in1024.4 mb 0.00 in0.0 mm 0.00 in0.0 mm 0.00 in0.0 mm
08:00 PM 33.0°F0.6°C 26.9°F-2.8°C 78% Calm Calm 1.0 mph1.6 kmh 30.25 in1024.4 mb 0.00 in0.0 mm 0.00 in0.0 mm 0.00 in0.0 mm
08:15 PM 32.3°F0.2°C 26.5°F-3.1°C 79% Calm Calm 1.0 mph1.6 kmh 30.25 in1024.4 mb 0.00 in0.0 mm 0.00 in0.0 mm 0.00 in0.0 mm
08:30 PM 32.6°F0.3°C 25.6°F-3.6°C 75% Calm Calm 1.0 mph1.6 kmh 30.26 in1024.7 mb 0.00 in0.0 mm 0.00 in0.0 mm 0.00 in0.0 mm
08:45 PM 32.8°F0.4°C 25.1°F-3.8°C 73% Calm Calm 1.0 mph1.6 kmh 30.26 in1024.7 mb 0.00 in0.0 mm 0.00 in0.0 mm 0.00 in0.0 mm
09:00 PM 32.8°F0.4°C 25.1°F-3.8°C 73% Calm Calm 1.0 mph1.6 kmh 30.26 in1024.7 mb 0.00 in0.0 mm 0.00 in0.0 mm 0.00 in0.0 mm
09:15 PM 32.6°F0.3°C 25.3°F-3.7°C 74% Calm Calm -- 30.27 in1025.1 mb 0.00 in0.0 mm 0.00 in0.0 mm 0.00 in0.0 mm
09:30 PM 32.2°F0.1°C 25.5°F-3.6°C 76% Calm Calm 1.0 mph1.6 kmh 30.27 in1025.1 mb 0.00 in0.0 mm 0.00 in0.0 mm 0.00 in0.0 mm
09:45 PM 32.0°F0.0°C 25.6°F-3.6°C 77% Calm Calm -- 30.27 in1025.1 mb 0.00 in0.0 mm 0.00 in0.0 mm 0.00 in0.0 mm
10:00 PM 31.8°F-0.1°C 25.7°F-3.5°C 78% Calm Calm -- 30.27 in1025.1 mb 0.00 in0.0 mm 0.00 in0.0 mm 0.00 in0.0 mm
10:15 PM 31.8°F-0.1°C 25.4°F-3.7°C 77% Calm Calm 2.0 mph3.2 kmh 30.27 in1025.1 mb 0.00 in0.0 mm 0.00 in0.0 mm 0.00 in0.0 mm
10:30 PM 31.5°F-0.3°C 25.4°F-3.7°C 78% Calm Calm 2.0 mph3.2 kmh 30.27 in1025.1 mb 0.00 in0.0 mm 0.00 in0.0 mm 0.00 in0.0 mm
10:45 PM 31.4°F-0.3°C 25.4°F-3.7°C 78% 2.0 mph NW3.2 kmh NW 7.0 mph11.3 kmh 30.27 in1025.1 mb 0.00 in0.0 mm 0.00 in0.0 mm 0.00 in0.0 mm
11:00 PM 31.5°F-0.3°C 25.1°F-3.8°C 77% Calm Calm -- 30.27 in1025.1 mb 0.00 in0.0 mm 0.00 in0.0 mm 0.00 in0.0 mm
11:15 PM 31.6°F-0.2°C 24.9°F-3.9°C 76% Calm Calm -- 30.27 in1025.1 mb 0.00 in0.0 mm 0.00 in0.0 mm 0.00 in0.0 mm
11:30 PM 31.5°F-0.3°C 24.5°F-4.2°C 75% 1.0 mph WNW1.6 kmh WNW 2.0 mph3.2 kmh 30.28 in1025.4 mb 0.00 in0.0 mm 0.00 in0.0 mm 0.00 in0.0 mm
11:45 PM 31.1°F-0.5°C 24.4°F-4.2°C 76% Calm Calm 3.0 mph4.8 kmh 30.28 in1025.4 mb 0.00 in0.0 mm 0.00 in0.0 mm 0.00 in0.0 mm